sensor_id;sensor_type;location;lat;lon;timestamp;P1;durP1;ratioP1;P2;durP2;ratioP2
13163;SDS011;6647;53.688;10.746;2024-01-25T00:00:49;45.15;;;7.75;;
13163;SDS011;6647;53.688;10.746;2024-01-25T00:01:51;43.85;;;7.05;;
13163;SDS011;6647;53.688;10.746;2024-01-25T00:02:51;60.90;;;8.77;;
13163;SDS011;6647;53.688;10.746;2024-01-25T00:03:53;52.45;;;8.43;;
13163;SDS011;6647;53.688;10.746;2024-01-25T00:04:55;43.20;;;7.97;;
13163;SDS011;6647;53.688;10.746;2024-01-25T00:05:57;50.92;;;8.65;;
13163;SDS011;6647;53.688;10.746;2024-01-25T00:06:58;44.67;;;8.23;;
13163;SDS011;6647;53.688;10.746;2024-01-25T00:07:59;49.42;;;7.82;;
13163;SDS011;6647;53.688;10.746;2024-01-25T00:09:01;38.15;;;8.38;;
13163;SDS011;6647;53.688;10.746;2024-01-25T00:10:02;56.50;;;9.50;;
13163;SDS011;6647;53.688;10.746;2024-01-25T00:11:08;52.22;;;9.65;;
13163;SDS011;6647;53.688;10.746;2024-01-25T00:12:10;39.25;;;7.68;;
13163;SDS011;6647;53.688;10.746;2024-01-25T00:13:12;39.72;;;8.30;;
13163;SDS011;6647;53.688;10.746;2024-01-25T00:14:12;38.87;;;6.70;;
13163;SDS011;6647;53.688;10.746;2024-01-25T00:15:13;48.50;;;7.83;;
13163;SDS011;6647;53.688;10.746;2024-01-25T00:16:13;51.80;;;8.70;;
13163;SDS011;6647;53.688;10.746;2024-01-25T00:17:13;51.13;;;8.77;;
13163;SDS011;6647;53.688;10.746;2024-01-25T00:18:13;44.40;;;8.23;;
13163;SDS011;6647;53.688;10.746;2024-01-25T00:19:14;60.73;;;9.50;;
13163;SDS011;6647;53.688;10.746;2024-01-25T00:20:14;58.17;;;8.40;;
13163;SDS011;6647;53.688;10.746;2024-01-25T00:21:14;40.10;;;7.23;;
13163;SDS011;6647;53.688;10.746;2024-01-25T00:22:15;44.23;;;6.63;;
13163;SDS011;6647;53.688;10.746;2024-01-25T00:23:15;47.23;;;7.30;;
13163;SDS011;6647;53.688;10.746;2024-01-25T00:24:15;41.03;;;6.70;;
13163;SDS011;6647;53.688;10.746;2024-01-25T00:25:16;58.60;;;8.03;;
13163;SDS011;6647;53.688;10.746;2024-01-25T00:26:16;36.67;;;8.07;;
13163;SDS011;6647;53.688;10.746;2024-01-25T00:27:16;51.10;;;9.20;;
13163;SDS011;6647;53.688;10.746;2024-01-25T00:28:17;41.70;;;9.27;;
13163;SDS011;6647;53.688;10.746;2024-01-25T00:29:18;51.53;;;8.52;;
13163;SDS011;6647;53.688;10.746;2024-01-25T00:30:18;44.37;;;7.60;;
13163;SDS011;6647;53.688;10.746;2024-01-25T00:31:18;40.37;;;6.70;;
13163;SDS011;6647;53.688;10.746;2024-01-25T00:32:20;52.65;;;9.23;;
13163;SDS011;6647;53.688;10.746;2024-01-25T00:33:21;39.53;;;7.05;;
13163;SDS011;6647;53.688;10.746;2024-01-25T00:34:22;72.83;;;9.17;;
13163;SDS011;6647;53.688;10.746;2024-01-25T00:35:23;54.00;;;8.27;;
13163;SDS011;6647;53.688;10.746;2024-01-25T00:36:25;58.95;;;9.25;;
13163;SDS011;6647;53.688;10.746;2024-01-25T00:37:26;45.22;;;8.35;;
13163;SDS011;6647;53.688;10.746;2024-01-25T00:38:27;52.45;;;8.48;;
13163;SDS011;6647;53.688;10.746;2024-01-25T00:39:29;51.35;;;8.95;;
13163;SDS011;6647;53.688;10.746;2024-01-25T00:40:30;51.17;;;8.77;;
13163;SDS011;6647;53.688;10.746;2024-01-25T00:41:32;44.88;;;9.48;;
13163;SDS011;6647;53.688;10.746;2024-01-25T00:42:34;48.92;;;7.55;;
13163;SDS011;6647;53.688;10.746;2024-01-25T00:43:40;42.70;;;7.85;;
13163;SDS011;6647;53.688;10.746;2024-01-25T00:44:41;48.67;;;8.48;;
13163;SDS011;6647;53.688;10.746;2024-01-25T00:45:42;57.03;;;8.37;;
13163;SDS011;6647;53.688;10.746;2024-01-25T00:46:42;44.60;;;7.50;;
13163;SDS011;6647;53.688;10.746;2024-01-25T00:47:43;46.83;;;7.70;;
13163;SDS011;6647;53.688;10.746;2024-01-25T00:48:44;52.43;;;8.30;;
13163;SDS011;6647;53.688;10.746;2024-01-25T00:49:44;50.77;;;8.27;;
13163;SDS011;6647;53.688;10.746;2024-01-25T00:50:44;53.33;;;9.17;;
13163;SDS011;6647;53.688;10.746;2024-01-25T00:51:47;46.30;;;7.03;;
13163;SDS011;6647;53.688;10.746;2024-01-25T00:52:47;56.78;;;8.20;;
13163;SDS011;6647;53.688;10.746;2024-01-25T00:53:48;65.60;;;9.00;;
13163;SDS011;6647;53.688;10.746;2024-01-25T00:54:49;53.43;;;8.70;;
13163;SDS011;6647;53.688;10.746;2024-01-25T00:55:49;47.63;;;8.17;;
13163;SDS011;6647;53.688;10.746;2024-01-25T00:56:50;47.00;;;8.07;;
13163;SDS011;6647;53.688;10.746;2024-01-25T00:57:54;56.25;;;7.32;;
13163;SDS011;6647;53.688;10.746;2024-01-25T00:58:56;58.85;;;8.73;;
13163;SDS011;6647;53.688;10.746;2024-01-25T00:59:58;59.13;;;8.68;;
13163;SDS011;6647;53.688;10.746;2024-01-25T01:01:00;59.97;;;7.80;;
13163;SDS011;6647;53.688;10.746;2024-01-25T01:02:01;46.40;;;7.60;;
13163;SDS011;6647;53.688;10.746;2024-01-25T01:03:02;43.80;;;7.80;;
13163;SDS011;6647;53.688;10.746;2024-01-25T01:04:06;64.70;;;8.60;;
13163;SDS011;6647;53.688;10.746;2024-01-25T01:05:08;47.28;;;8.13;;
13163;SDS011;6647;53.688;10.746;2024-01-25T01:06:11;49.28;;;7.38;;
13163;SDS011;6647;53.688;10.746;2024-01-25T01:07:12;50.90;;;9.05;;
13163;SDS011;6647;53.688;10.746;2024-01-25T01:08:13;59.90;;;8.43;;
13163;SDS011;6647;53.688;10.746;2024-01-25T01:09:13;51.80;;;8.60;;
13163;SDS011;6647;53.688;10.746;2024-01-25T01:10:13;41.47;;;7.47;;
13163;SDS011;6647;53.688;10.746;2024-01-25T01:11:14;44.57;;;7.67;;
13163;SDS011;6647;53.688;10.746;2024-01-25T01:12:14;44.83;;;8.63;;
13163;SDS011;6647;53.688;10.746;2024-01-25T01:13:15;58.20;;;8.17;;
13163;SDS011;6647;53.688;10.746;2024-01-25T01:14:15;54.97;;;8.80;;
13163;SDS011;6647;53.688;10.746;2024-01-25T01:15:15;49.23;;;8.07;;
13163;SDS011;6647;53.688;10.746;2024-01-25T01:16:16;55.80;;;8.17;;
13163;SDS011;6647;53.688;10.746;2024-01-25T01:17:16;59.60;;;10.00;;
13163;SDS011;6647;53.688;10.746;2024-01-25T01:18:18;49.80;;;9.55;;
13163;SDS011;6647;53.688;10.746;2024-01-25T01:19:18;42.00;;;8.63;;
13163;SDS011;6647;53.688;10.746;2024-01-25T01:20:18;44.03;;;8.60;;
13163;SDS011;6647;53.688;10.746;2024-01-25T01:21:19;51.87;;;7.70;;
13163;SDS011;6647;53.688;10.746;2024-01-25T01:22:22;57.58;;;7.53;;
13163;SDS011;6647;53.688;10.746;2024-01-25T01:23:24;52.70;;;8.30;;
13163;SDS011;6647;53.688;10.746;2024-01-25T01:24:24;52.43;;;8.80;;
13163;SDS011;6647;53.688;10.746;2024-01-25T01:25:24;47.67;;;9.40;;
13163;SDS011;6647;53.688;10.746;2024-01-25T01:26:26;46.47;;;8.05;;
13163;SDS011;6647;53.688;10.746;2024-01-25T01:27:26;62.63;;;9.40;;
13163;SDS011;6647;53.688;10.746;2024-01-25T01:28:26;57.40;;;9.03;;
13163;SDS011;6647;53.688;10.746;2024-01-25T01:29:26;47.33;;;7.60;;
13163;SDS011;6647;53.688;10.746;2024-01-25T01:30:27;52.63;;;8.53;;
13163;SDS011;6647;53.688;10.746;2024-01-25T01:31:27;65.73;;;8.83;;
13163;SDS011;6647;53.688;10.746;2024-01-25T01:32:28;39.90;;;9.53;;
13163;SDS011;6647;53.688;10.746;2024-01-25T01:33:28;49.63;;;8.57;;
13163;SDS011;6647;53.688;10.746;2024-01-25T01:34:28;56.87;;;8.23;;
13163;SDS011;6647;53.688;10.746;2024-01-25T01:35:28;67.17;;;9.00;;
13163;SDS011;6647;53.688;10.746;2024-01-25T01:36:29;56.83;;;8.57;;
13163;SDS011;6647;53.688;10.746;2024-01-25T01:37:29;60.07;;;8.97;;
13163;SDS011;6647;53.688;10.746;2024-01-25T01:38:29;57.70;;;8.53;;
13163;SDS011;6647;53.688;10.746;2024-01-25T01:39:30;63.87;;;9.43;;
13163;SDS011;6647;53.688;10.746;2024-01-25T01:40:33;41.28;;;7.88;;
13163;SDS011;6647;53.688;10.746;2024-01-25T01:41:34;53.22;;;8.32;;
13163;SDS011;6647;53.688;10.746;2024-01-25T01:42:36;54.83;;;8.38;;
13163;SDS011;6647;53.688;10.746;2024-01-25T01:43:38;43.38;;;7.57;;
13163;SDS011;6647;53.688;10.746;2024-01-25T01:44:40;45.60;;;7.85;;
13163;SDS011;6647;53.688;10.746;2024-01-25T01:45:42;45.90;;;7.95;;
13163;SDS011;6647;53.688;10.746;2024-01-25T01:46:42;48.33;;;7.70;;
13163;SDS011;6647;53.688;10.746;2024-01-25T01:47:43;58.43;;;7.93;;
13163;SDS011;6647;53.688;10.746;2024-01-25T01:48:44;63.47;;;8.35;;
13163;SDS011;6647;53.688;10.746;2024-01-25T01:49:44;49.90;;;6.93;;
13163;SDS011;6647;53.688;10.746;2024-01-25T01:50:44;46.00;;;8.43;;
13163;SDS011;6647;53.688;10.746;2024-01-25T01:51:45;49.83;;;8.27;;
13163;SDS011;6647;53.688;10.746;2024-01-25T01:52:45;37.43;;;7.07;;
13163;SDS011;6647;53.688;10.746;2024-01-25T01:53:46;43.15;;;8.13;;
13163;SDS011;6647;53.688;10.746;2024-01-25T01:54:46;46.00;;;8.40;;
13163;SDS011;6647;53.688;10.746;2024-01-25T01:55:47;55.93;;;8.10;;
13163;SDS011;6647;53.688;10.746;2024-01-25T01:56:48;52.50;;;7.40;;
13163;SDS011;6647;53.688;10.746;2024-01-25T01:57:48;51.57;;;7.40;;
13163;SDS011;6647;53.688;10.746;2024-01-25T01:58:50;47.97;;;7.97;;
13163;SDS011;6647;53.688;10.746;2024-01-25T01:59:51;48.55;;;7.85;;
13163;SDS011;6647;53.688;10.746;2024-01-25T02:00:54;48.78;;;8.13;;
13163;SDS011;6647;53.688;10.746;2024-01-25T02:01:57;62.25;;;9.15;;
13163;SDS011;6647;53.688;10.746;2024-01-25T02:02:58;48.25;;;8.20;;
13163;SDS011;6647;53.688;10.746;2024-01-25T02:04:00;58.38;;;8.73;;
13163;SDS011;6647;53.688;10.746;2024-01-25T02:05:01;51.28;;;7.80;;
13163;SDS011;6647;53.688;10.746;2024-01-25T02:06:03;43.78;;;7.25;;
13163;SDS011;6647;53.688;10.746;2024-01-25T02:07:04;70.40;;;10.55;;
13163;SDS011;6647;53.688;10.746;2024-01-25T02:08:05;52.13;;;9.40;;
13163;SDS011;6647;53.688;10.746;2024-01-25T02:09:08;46.80;;;7.60;;
13163;SDS011;6647;53.688;10.746;2024-01-25T02:10:09;52.55;;;7.78;;
13163;SDS011;6647;53.688;10.746;2024-01-25T02:11:12;45.05;;;7.78;;
13163;SDS011;6647;53.688;10.746;2024-01-25T02:12:15;54.47;;;8.87;;
13163;SDS011;6647;53.688;10.746;2024-01-25T02:13:17;43.30;;;9.05;;
13163;SDS011;6647;53.688;10.746;2024-01-25T02:14:17;49.97;;;7.60;;
13163;SDS011;6647;53.688;10.746;2024-01-25T02:15:18;58.80;;;7.57;;
13163;SDS011;6647;53.688;10.746;2024-01-25T02:16:18;46.57;;;8.40;;
13163;SDS011;6647;53.688;10.746;2024-01-25T02:17:22;53.38;;;9.30;;
13163;SDS011;6647;53.688;10.746;2024-01-25T02:18:22;47.27;;;7.97;;
13163;SDS011;6647;53.688;10.746;2024-01-25T02:19:24;61.95;;;8.80;;
13163;SDS011;6647;53.688;10.746;2024-01-25T02:20:25;49.35;;;8.27;;
13163;SDS011;6647;53.688;10.746;2024-01-25T02:21:26;41.75;;;7.10;;
13163;SDS011;6647;53.688;10.746;2024-01-25T02:22:29;50.63;;;8.40;;
13163;SDS011;6647;53.688;10.746;2024-01-25T02:23:30;42.50;;;7.60;;
13163;SDS011;6647;53.688;10.746;2024-01-25T02:24:31;47.63;;;7.43;;
13163;SDS011;6647;53.688;10.746;2024-01-25T02:25:32;40.57;;;7.37;;
13163;SDS011;6647;53.688;10.746;2024-01-25T02:26:34;33.60;;;7.53;;
13163;SDS011;6647;53.688;10.746;2024-01-25T02:27:35;50.20;;;8.60;;
13163;SDS011;6647;53.688;10.746;2024-01-25T02:28:38;58.40;;;8.35;;
13163;SDS011;6647;53.688;10.746;2024-01-25T02:29:39;47.17;;;7.27;;
13163;SDS011;6647;53.688;10.746;2024-01-25T02:30:40;41.35;;;7.32;;
13163;SDS011;6647;53.688;10.746;2024-01-25T02:31:42;52.25;;;7.50;;
13163;SDS011;6647;53.688;10.746;2024-01-25T02:32:43;40.47;;;7.00;;
13163;SDS011;6647;53.688;10.746;2024-01-25T02:33:44;47.03;;;6.65;;
13163;SDS011;6647;53.688;10.746;2024-01-25T02:34:44;45.73;;;7.47;;
13163;SDS011;6647;53.688;10.746;2024-01-25T02:35:44;41.93;;;6.93;;
13163;SDS011;6647;53.688;10.746;2024-01-25T02:36:44;50.73;;;7.73;;
13163;SDS011;6647;53.688;10.746;2024-01-25T02:37:45;45.77;;;8.40;;
13163;SDS011;6647;53.688;10.746;2024-01-25T02:38:45;45.37;;;7.40;;
13163;SDS011;6647;53.688;10.746;2024-01-25T02:39:45;40.77;;;7.87;;
13163;SDS011;6647;53.688;10.746;2024-01-25T02:40:46;42.23;;;7.37;;
13163;SDS011;6647;53.688;10.746;2024-01-25T02:41:46;51.37;;;7.97;;
13163;SDS011;6647;53.688;10.746;2024-01-25T02:42:46;44.27;;;6.30;;
13163;SDS011;6647;53.688;10.746;2024-01-25T02:43:46;30.63;;;6.77;;
13163;SDS011;6647;53.688;10.746;2024-01-25T02:44:47;44.63;;;6.67;;
13163;SDS011;6647;53.688;10.746;2024-01-25T02:45:47;30.50;;;6.43;;
13163;SDS011;6647;53.688;10.746;2024-01-25T02:46:48;37.70;;;5.93;;
13163;SDS011;6647;53.688;10.746;2024-01-25T02:47:48;39.37;;;6.93;;
13163;SDS011;6647;53.688;10.746;2024-01-25T02:48:49;43.37;;;7.27;;
13163;SDS011;6647;53.688;10.746;2024-01-25T02:49:49;42.90;;;6.90;;
13163;SDS011;6647;53.688;10.746;2024-01-25T02:50:49;44.03;;;6.83;;
13163;SDS011;6647;53.688;10.746;2024-01-25T02:51:50;38.43;;;7.30;;
13163;SDS011;6647;53.688;10.746;2024-01-25T02:52:51;42.47;;;7.03;;
13163;SDS011;6647;53.688;10.746;2024-01-25T02:53:52;51.75;;;8.10;;
13163;SDS011;6647;53.688;10.746;2024-01-25T02:54:54;36.92;;;6.40;;
13163;SDS011;6647;53.688;10.746;2024-01-25T02:55:56;33.95;;;6.75;;
13163;SDS011;6647;53.688;10.746;2024-01-25T02:56:57;42.50;;;6.78;;
13163;SDS011;6647;53.688;10.746;2024-01-25T02:57:58;36.60;;;6.07;;
13163;SDS011;6647;53.688;10.746;2024-01-25T02:59:01;41.13;;;6.75;;
13163;SDS011;6647;53.688;10.746;2024-01-25T03:00:02;47.00;;;6.75;;
13163;SDS011;6647;53.688;10.746;2024-01-25T03:01:04;38.75;;;7.00;;
13163;SDS011;6647;53.688;10.746;2024-01-25T03:02:06;41.00;;;7.43;;
13163;SDS011;6647;53.688;10.746;2024-01-25T03:03:08;42.88;;;7.55;;
13163;SDS011;6647;53.688;10.746;2024-01-25T03:04:10;42.58;;;5.88;;
13163;SDS011;6647;53.688;10.746;2024-01-25T03:05:12;35.10;;;6.53;;
13163;SDS011;6647;53.688;10.746;2024-01-25T03:06:12;31.87;;;5.47;;
13163;SDS011;6647;53.688;10.746;2024-01-25T03:07:13;38.63;;;6.53;;
13163;SDS011;6647;53.688;10.746;2024-01-25T03:08:14;39.97;;;7.60;;
13163;SDS011;6647;53.688;10.746;2024-01-25T03:09:14;39.97;;;6.10;;
13163;SDS011;6647;53.688;10.746;2024-01-25T03:10:14;44.10;;;6.30;;
13163;SDS011;6647;53.688;10.746;2024-01-25T03:11:15;35.87;;;5.30;;
13163;SDS011;6647;53.688;10.746;2024-01-25T03:12:15;38.37;;;6.47;;
13163;SDS011;6647;53.688;10.746;2024-01-25T03:13:15;29.90;;;5.93;;
13163;SDS011;6647;53.688;10.746;2024-01-25T03:14:19;35.38;;;6.60;;
13163;SDS011;6647;53.688;10.746;2024-01-25T03:15:20;39.80;;;7.03;;
13163;SDS011;6647;53.688;10.746;2024-01-25T03:16:22;28.95;;;5.93;;
13163;SDS011;6647;53.688;10.746;2024-01-25T03:17:24;30.65;;;6.05;;
13163;SDS011;6647;53.688;10.746;2024-01-25T03:18:25;29.77;;;5.03;;
13163;SDS011;6647;53.688;10.746;2024-01-25T03:19:26;41.25;;;6.97;;
13163;SDS011;6647;53.688;10.746;2024-01-25T03:20:28;37.67;;;5.72;;
13163;SDS011;6647;53.688;10.746;2024-01-25T03:21:30;42.53;;;6.55;;
13163;SDS011;6647;53.688;10.746;2024-01-25T03:22:32;34.38;;;7.20;;
13163;SDS011;6647;53.688;10.746;2024-01-25T03:23:34;32.95;;;6.20;;
13163;SDS011;6647;53.688;10.746;2024-01-25T03:24:39;30.13;;;5.95;;
13163;SDS011;6647;53.688;10.746;2024-01-25T03:25:40;26.75;;;5.60;;
13163;SDS011;6647;53.688;10.746;2024-01-25T03:26:41;27.63;;;5.57;;
13163;SDS011;6647;53.688;10.746;2024-01-25T03:27:42;34.10;;;5.85;;
13163;SDS011;6647;53.688;10.746;2024-01-25T03:28:42;39.37;;;6.43;;
13163;SDS011;6647;53.688;10.746;2024-01-25T03:29:43;40.37;;;5.70;;
13163;SDS011;6647;53.688;10.746;2024-01-25T03:30:43;31.83;;;6.33;;
13163;SDS011;6647;53.688;10.746;2024-01-25T03:31:44;30.83;;;5.60;;
13163;SDS011;6647;53.688;10.746;2024-01-25T03:32:46;39.47;;;6.13;;
13163;SDS011;6647;53.688;10.746;2024-01-25T03:33:47;36.95;;;5.95;;
13163;SDS011;6647;53.688;10.746;2024-01-25T03:34:47;39.03;;;7.10;;
13163;SDS011;6647;53.688;10.746;2024-01-25T03:35:47;44.77;;;5.00;;
13163;SDS011;6647;53.688;10.746;2024-01-25T03:36:48;32.90;;;6.40;;
13163;SDS011;6647;53.688;10.746;2024-01-25T03:37:48;32.33;;;5.20;;
13163;SDS011;6647;53.688;10.746;2024-01-25T03:38:48;27.60;;;4.60;;
13163;SDS011;6647;53.688;10.746;2024-01-25T03:39:50;29.80;;;6.10;;
13163;SDS011;6647;53.688;10.746;2024-01-25T03:40:52;38.47;;;6.03;;
13163;SDS011;6647;53.688;10.746;2024-01-25T03:41:53;29.05;;;5.20;;
13163;SDS011;6647;53.688;10.746;2024-01-25T03:42:54;50.00;;;6.40;;
13163;SDS011;6647;53.688;10.746;2024-01-25T03:43:56;42.03;;;6.13;;
13163;SDS011;6647;53.688;10.746;2024-01-25T03:44:58;44.30;;;6.55;;
13163;SDS011;6647;53.688;10.746;2024-01-25T03:45:58;33.70;;;6.40;;
13163;SDS011;6647;53.688;10.746;2024-01-25T03:46:59;32.30;;;5.63;;
13163;SDS011;6647;53.688;10.746;2024-01-25T03:48:00;41.50;;;5.80;;
13163;SDS011;6647;53.688;10.746;2024-01-25T03:49:00;30.60;;;5.30;;
13163;SDS011;6647;53.688;10.746;2024-01-25T03:50:01;33.80;;;4.82;;
13163;SDS011;6647;53.688;10.746;2024-01-25T03:51:02;32.72;;;5.03;;
13163;SDS011;6647;53.688;10.746;2024-01-25T03:52:04;35.15;;;5.63;;
13163;SDS011;6647;53.688;10.746;2024-01-25T03:53:05;33.00;;;5.70;;
13163;SDS011;6647;53.688;10.746;2024-01-25T03:54:06;33.83;;;6.47;;
13163;SDS011;6647;53.688;10.746;2024-01-25T03:55:07;29.02;;;5.13;;
13163;SDS011;6647;53.688;10.746;2024-01-25T03:56:12;33.58;;;6.45;;
13163;SDS011;6647;53.688;10.746;2024-01-25T03:57:18;26.65;;;5.32;;
13163;SDS011;6647;53.688;10.746;2024-01-25T03:58:19;33.57;;;6.03;;
13163;SDS011;6647;53.688;10.746;2024-01-25T03:59:19;28.40;;;5.07;;
13163;SDS011;6647;53.688;10.746;2024-01-25T04:00:19;43.30;;;5.57;;
13163;SDS011;6647;53.688;10.746;2024-01-25T04:01:20;39.37;;;6.10;;
13163;SDS011;6647;53.688;10.746;2024-01-25T04:02:21;30.27;;;5.50;;
13163;SDS011;6647;53.688;10.746;2024-01-25T04:03:22;33.63;;;5.03;;
13163;SDS011;6647;53.688;10.746;2024-01-25T04:04:23;30.27;;;5.30;;
13163;SDS011;6647;53.688;10.746;2024-01-25T04:05:24;42.15;;;6.32;;
13163;SDS011;6647;53.688;10.746;2024-01-25T04:06:28;19.77;;;4.80;;
13163;SDS011;6647;53.688;10.746;2024-01-25T04:07:28;38.27;;;5.70;;
13163;SDS011;6647;53.688;10.746;2024-01-25T04:08:30;35.40;;;5.45;;
13163;SDS011;6647;53.688;10.746;2024-01-25T04:09:32;38.40;;;5.68;;
13163;SDS011;6647;53.688;10.746;2024-01-25T04:10:33;32.07;;;5.60;;
13163;SDS011;6647;53.688;10.746;2024-01-25T04:11:35;26.52;;;4.45;;
13163;SDS011;6647;53.688;10.746;2024-01-25T04:12:37;39.13;;;5.78;;
13163;SDS011;6647;53.688;10.746;2024-01-25T04:13:40;29.90;;;4.82;;
13163;SDS011;6647;53.688;10.746;2024-01-25T04:14:41;34.35;;;5.95;;
13163;SDS011;6647;53.688;10.746;2024-01-25T04:15:41;23.67;;;4.27;;
13163;SDS011;6647;53.688;10.746;2024-01-25T04:16:42;24.70;;;5.30;;
13163;SDS011;6647;53.688;10.746;2024-01-25T04:17:42;42.20;;;6.00;;
13163;SDS011;6647;53.688;10.746;2024-01-25T04:18:43;26.33;;;5.40;;
13163;SDS011;6647;53.688;10.746;2024-01-25T04:19:43;28.57;;;5.40;;
13163;SDS011;6647;53.688;10.746;2024-01-25T04:20:43;37.97;;;6.70;;
13163;SDS011;6647;53.688;10.746;2024-01-25T04:21:44;39.33;;;5.80;;
13163;SDS011;6647;53.688;10.746;2024-01-25T04:22:44;30.60;;;5.30;;
13163;SDS011;6647;53.688;10.746;2024-01-25T04:23:45;26.60;;;5.10;;
13163;SDS011;6647;53.688;10.746;2024-01-25T04:24:45;32.90;;;5.50;;
13163;SDS011;6647;53.688;10.746;2024-01-25T04:25:48;28.52;;;4.60;;
13163;SDS011;6647;53.688;10.746;2024-01-25T04:26:50;30.15;;;5.28;;
13163;SDS011;6647;53.688;10.746;2024-01-25T04:27:52;33.78;;;5.70;;
13163;SDS011;6647;53.688;10.746;2024-01-25T04:28:52;37.37;;;5.77;;
13163;SDS011;6647;53.688;10.746;2024-01-25T04:29:53;35.70;;;4.30;;
13163;SDS011;6647;53.688;10.746;2024-01-25T04:30:53;26.67;;;5.50;;
13163;SDS011;6647;53.688;10.746;2024-01-25T04:31:53;32.57;;;4.90;;
13163;SDS011;6647;53.688;10.746;2024-01-25T04:32:53;34.53;;;6.30;;
13163;SDS011;6647;53.688;10.746;2024-01-25T04:33:53;31.63;;;4.80;;
13163;SDS011;6647;53.688;10.746;2024-01-25T04:34:54;42.83;;;6.53;;
13163;SDS011;6647;53.688;10.746;2024-01-25T04:35:54;31.47;;;5.80;;
13163;SDS011;6647;53.688;10.746;2024-01-25T04:36:55;21.43;;;4.33;;
13163;SDS011;6647;53.688;10.746;2024-01-25T04:37:55;23.20;;;4.83;;
13163;SDS011;6647;53.688;10.746;2024-01-25T04:38:55;31.37;;;6.30;;
13163;SDS011;6647;53.688;10.746;2024-01-25T04:39:55;40.07;;;5.73;;
13163;SDS011;6647;53.688;10.746;2024-01-25T04:40:56;29.73;;;5.50;;
13163;SDS011;6647;53.688;10.746;2024-01-25T04:41:56;32.97;;;5.27;;
13163;SDS011;6647;53.688;10.746;2024-01-25T04:42:56;35.40;;;4.90;;
13163;SDS011;6647;53.688;10.746;2024-01-25T04:43:57;32.50;;;4.70;;
13163;SDS011;6647;53.688;10.746;2024-01-25T04:44:57;33.97;;;6.30;;
13163;SDS011;6647;53.688;10.746;2024-01-25T04:45:57;30.57;;;4.97;;
13163;SDS011;6647;53.688;10.746;2024-01-25T04:46:58;31.93;;;5.20;;
13163;SDS011;6647;53.688;10.746;2024-01-25T04:47:58;25.20;;;4.43;;
13163;SDS011;6647;53.688;10.746;2024-01-25T04:48:59;28.10;;;4.57;;
13163;SDS011;6647;53.688;10.746;2024-01-25T04:49:59;24.90;;;5.03;;
13163;SDS011;6647;53.688;10.746;2024-01-25T04:50:59;34.43;;;5.60;;
13163;SDS011;6647;53.688;10.746;2024-01-25T04:52:00;38.70;;;5.00;;
13163;SDS011;6647;53.688;10.746;2024-01-25T04:53:03;42.53;;;6.20;;
13163;SDS011;6647;53.688;10.746;2024-01-25T04:54:04;35.13;;;5.85;;
13163;SDS011;6647;53.688;10.746;2024-01-25T04:55:08;37.03;;;5.68;;
13163;SDS011;6647;53.688;10.746;2024-01-25T04:56:09;30.13;;;5.37;;
13163;SDS011;6647;53.688;10.746;2024-01-25T04:57:10;32.65;;;5.50;;
13163;SDS011;6647;53.688;10.746;2024-01-25T04:58:11;29.98;;;5.35;;
13163;SDS011;6647;53.688;10.746;2024-01-25T04:59:12;33.33;;;5.95;;
13163;SDS011;6647;53.688;10.746;2024-01-25T05:00:13;29.57;;;5.60;;
13163;SDS011;6647;53.688;10.746;2024-01-25T05:01:13;38.93;;;5.77;;
13163;SDS011;6647;53.688;10.746;2024-01-25T05:02:14;32.40;;;5.23;;
13163;SDS011;6647;53.688;10.746;2024-01-25T05:03:14;34.83;;;4.70;;
13163;SDS011;6647;53.688;10.746;2024-01-25T05:04:15;32.13;;;5.57;;
13163;SDS011;6647;53.688;10.746;2024-01-25T05:05:16;40.35;;;5.60;;
13163;SDS011;6647;53.688;10.746;2024-01-25T05:06:16;35.57;;;5.03;;
13163;SDS011;6647;53.688;10.746;2024-01-25T05:07:16;37.00;;;5.40;;
13163;SDS011;6647;53.688;10.746;2024-01-25T05:08:16;19.63;;;4.47;;
13163;SDS011;6647;53.688;10.746;2024-01-25T05:09:17;32.10;;;5.47;;
13163;SDS011;6647;53.688;10.746;2024-01-25T05:10:17;37.50;;;5.50;;
13163;SDS011;6647;53.688;10.746;2024-01-25T05:11:17;29.17;;;3.97;;
13163;SDS011;6647;53.688;10.746;2024-01-25T05:12:18;38.23;;;5.00;;
13163;SDS011;6647;53.688;10.746;2024-01-25T05:13:20;29.35;;;5.90;;
13163;SDS011;6647;53.688;10.746;2024-01-25T05:14:21;32.90;;;5.00;;
13163;SDS011;6647;53.688;10.746;2024-01-25T05:15:22;36.20;;;5.40;;
13163;SDS011;6647;53.688;10.746;2024-01-25T05:16:22;40.90;;;4.97;;
13163;SDS011;6647;53.688;10.746;2024-01-25T05:17:24;35.45;;;5.72;;
13163;SDS011;6647;53.688;10.746;2024-01-25T05:18:25;37.63;;;5.93;;
13163;SDS011;6647;53.688;10.746;2024-01-25T05:19:26;36.15;;;5.97;;
13163;SDS011;6647;53.688;10.746;2024-01-25T05:20:28;27.95;;;5.55;;
13163;SDS011;6647;53.688;10.746;2024-01-25T05:21:36;21.05;;;4.63;;
13163;SDS011;6647;53.688;10.746;2024-01-25T05:22:37;25.13;;;5.50;;
13163;SDS011;6647;53.688;10.746;2024-01-25T05:23:41;39.63;;;5.28;;
13163;SDS011;6647;53.688;10.746;2024-01-25T05:24:41;29.97;;;6.20;;
13163;SDS011;6647;53.688;10.746;2024-01-25T05:25:42;29.73;;;5.70;;
13163;SDS011;6647;53.688;10.746;2024-01-25T05:26:42;26.23;;;4.97;;
13163;SDS011;6647;53.688;10.746;2024-01-25T05:27:43;41.90;;;5.20;;
13163;SDS011;6647;53.688;10.746;2024-01-25T05:28:43;27.13;;;5.60;;
13163;SDS011;6647;53.688;10.746;2024-01-25T05:29:43;37.00;;;6.20;;
13163;SDS011;6647;53.688;10.746;2024-01-25T05:30:43;33.23;;;4.80;;
13163;SDS011;6647;53.688;10.746;2024-01-25T05:31:44;34.03;;;5.77;;
13163;SDS011;6647;53.688;10.746;2024-01-25T05:32:44;25.43;;;5.60;;
13163;SDS011;6647;53.688;10.746;2024-01-25T05:33:45;33.80;;;4.63;;
13163;SDS011;6647;53.688;10.746;2024-01-25T05:34:46;34.50;;;5.97;;
13163;SDS011;6647;53.688;10.746;2024-01-25T05:35:46;31.03;;;5.47;;
13163;SDS011;6647;53.688;10.746;2024-01-25T05:36:47;33.43;;;5.87;;
13163;SDS011;6647;53.688;10.746;2024-01-25T05:37:47;32.67;;;4.70;;
13163;SDS011;6647;53.688;10.746;2024-01-25T05:38:48;23.33;;;4.40;;
13163;SDS011;6647;53.688;10.746;2024-01-25T05:39:50;33.65;;;6.40;;
13163;SDS011;6647;53.688;10.746;2024-01-25T05:40:52;23.23;;;5.05;;
13163;SDS011;6647;53.688;10.746;2024-01-25T05:41:53;40.03;;;5.63;;
13163;SDS011;6647;53.688;10.746;2024-01-25T05:42:55;35.47;;;6.15;;
13163;SDS011;6647;53.688;10.746;2024-01-25T05:43:56;32.17;;;4.33;;
13163;SDS011;6647;53.688;10.746;2024-01-25T05:44:57;31.98;;;4.82;;
13163;SDS011;6647;53.688;10.746;2024-01-25T05:45:57;30.80;;;4.90;;
13163;SDS011;6647;53.688;10.746;2024-01-25T05:46:58;27.70;;;5.70;;
13163;SDS011;6647;53.688;10.746;2024-01-25T05:47:59;33.27;;;4.53;;
13163;SDS011;6647;53.688;10.746;2024-01-25T05:49:01;35.70;;;6.95;;
13163;SDS011;6647;53.688;10.746;2024-01-25T05:50:02;34.40;;;5.40;;
13163;SDS011;6647;53.688;10.746;2024-01-25T05:51:04;28.02;;;5.82;;
13163;SDS011;6647;53.688;10.746;2024-01-25T05:52:05;28.33;;;5.40;;
13163;SDS011;6647;53.688;10.746;2024-01-25T05:53:06;35.10;;;5.10;;
13163;SDS011;6647;53.688;10.746;2024-01-25T05:54:07;40.60;;;7.00;;
13163;SDS011;6647;53.688;10.746;2024-01-25T05:55:08;36.07;;;5.53;;
13163;SDS011;6647;53.688;10.746;2024-01-25T05:56:09;30.48;;;5.50;;
13163;SDS011;6647;53.688;10.746;2024-01-25T05:57:10;39.88;;;5.50;;
13163;SDS011;6647;53.688;10.746;2024-01-25T05:58:12;29.67;;;5.60;;
13163;SDS011;6647;53.688;10.746;2024-01-25T05:59:12;29.00;;;4.70;;
13163;SDS011;6647;53.688;10.746;2024-01-25T06:00:12;32.23;;;4.90;;
13163;SDS011;6647;53.688;10.746;2024-01-25T06:01:14;45.28;;;8.00;;
13163;SDS011;6647;53.688;10.746;2024-01-25T06:02:14;30.57;;;4.50;;